createdAt,value
2017-03-18T00:00:16.768Z,1000.27
2017-03-18T00:00:57.270Z,1000.27
2017-03-18T00:01:37.830Z,1000.27
2017-03-18T00:02:18.327Z,1000.25
2017-03-18T00:02:58.860Z,1000.21
2017-03-18T00:03:39.305Z,1000.27
2017-03-18T00:04:19.796Z,1000.24
2017-03-18T00:05:00.262Z,1000.22
2017-03-18T00:05:40.757Z,1000.24
2017-03-18T00:06:21.300Z,1000.22
2017-03-18T00:07:01.789Z,1000.25
2017-03-18T00:07:42.292Z,1000.2
2017-03-18T00:08:22.757Z,1000.25
2017-03-18T00:09:03.315Z,1000.2
2017-03-18T00:09:43.809Z,1000.23
2017-03-18T00:10:24.308Z,1000.22
2017-03-18T00:11:04.782Z,1000.25
2017-03-18T00:11:45.262Z,1000.23
2017-03-18T00:12:25.766Z,1000.26
2017-03-18T00:13:06.254Z,1000.21
2017-03-18T00:13:46.775Z,1000.23
2017-03-18T00:14:27.238Z,1000.25
2017-03-18T00:15:07.831Z,1000.23
2017-03-18T00:15:48.233Z,1000.23
2017-03-18T00:16:28.710Z,1000.29
2017-03-18T00:17:09.245Z,1000.29
2017-03-18T00:17:49.725Z,1000.3
2017-03-18T00:18:30.247Z,1000.28
2017-03-18T00:19:10.707Z,1000.28
2017-03-18T00:19:51.274Z,1000.28
2017-03-18T00:20:31.714Z,1000.31
2017-03-18T00:21:12.235Z,1000.28
2017-03-18T00:21:52.675Z,1000.24
2017-03-18T00:22:33.308Z,1000.25
2017-03-18T00:23:13.782Z,1000.23
2017-03-18T00:23:54.268Z,1000.2
2017-03-18T00:24:34.781Z,1000.15
2017-03-18T00:25:15.312Z,1000.17
2017-03-18T00:25:55.743Z,1000.13
2017-03-18T00:26:36.279Z,1000.1
2017-03-18T00:27:16.756Z,1000.14
2017-03-18T00:27:57.242Z,1000.05
2017-03-18T00:28:37.759Z,1000.06
2017-03-18T00:29:18.217Z,1000.01
2017-03-18T00:29:58.746Z,1000
2017-03-18T00:30:39.218Z,1000
2017-03-18T00:31:19.736Z,999.9
2017-03-18T00:32:00.242Z,999.97
2017-03-18T00:32:40.687Z,999.86
2017-03-18T00:33:21.211Z,999.87
2017-03-18T00:34:01.703Z,999.82
2017-03-18T00:34:42.229Z,999.85
2017-03-18T00:35:22.680Z,999.75
2017-03-18T00:36:03.200Z,999.84
2017-03-18T00:36:43.672Z,999.81
2017-03-18T00:37:24.174Z,999.82
2017-03-18T00:38:04.649Z,999.69
2017-03-18T00:38:45.151Z,999.73
2017-03-18T00:39:25.670Z,999.73
2017-03-18T00:40:06.134Z,999.66
2017-03-18T00:40:46.751Z,999.69
2017-03-18T00:41:27.218Z,999.76
2017-03-18T00:42:07.768Z,999.7
2017-03-18T00:42:48.284Z,999.72
2017-03-18T00:43:28.714Z,999.75
2017-03-18T00:44:09.208Z,999.74
2017-03-18T00:44:49.702Z,999.82
2017-03-18T00:45:30.220Z,999.83
2017-03-18T00:46:10.750Z,999.8
2017-03-18T00:46:51.316Z,999.86
2017-03-18T00:47:31.781Z,999.79
2017-03-18T00:48:13.190Z,999.78
2017-03-18T00:48:53.664Z,999.76
2017-03-18T00:49:34.187Z,999.73
2017-03-18T00:50:14.713Z,999.85
2017-03-18T00:50:55.196Z,999.83
2017-03-18T00:51:35.699Z,999.85
2017-03-18T00:52:16.248Z,999.84
2017-03-18T00:52:56.736Z,999.88
2017-03-18T00:53:37.190Z,999.88
2017-03-18T00:54:17.684Z,999.89
2017-03-18T00:54:58.184Z,999.89
2017-03-18T00:55:38.648Z,999.85
2017-03-18T00:56:19.147Z,999.87
2017-03-18T00:56:59.635Z,999.86
2017-03-18T00:57:40.163Z,999.82
2017-03-18T00:58:20.646Z,999.9
2017-03-18T00:59:01.146Z,999.85
2017-03-18T00:59:41.633Z,999.82
2017-03-18T01:00:22.122Z,999.81
2017-03-18T01:01:02.630Z,999.76
2017-03-18T01:01:43.147Z,999.66
2017-03-18T01:02:23.640Z,999.81
2017-03-18T01:03:04.147Z,999.76
2017-03-18T01:03:44.614Z,999.73
2017-03-18T01:04:25.155Z,999.72
2017-03-18T01:05:05.631Z,999.8
2017-03-18T01:05:46.117Z,999.73
2017-03-18T01:06:26.606Z,999.76
2017-03-18T01:07:07.183Z,999.79
2017-03-18T01:07:47.715Z,999.76
2017-03-18T01:08:28.165Z,999.8
2017-03-18T01:09:08.690Z,999.81
2017-03-18T01:09:49.132Z,999.76
2017-03-18T01:10:29.638Z,999.82
2017-03-18T01:11:10.109Z,999.84
2017-03-18T01:11:50.612Z,999.79
2017-03-18T01:12:31.103Z,999.83
2017-03-18T01:13:11.554Z,999.86
2017-03-18T01:13:52.070Z,999.81
2017-03-18T01:14:32.609Z,999.86
2017-03-18T01:15:13.106Z,999.87
2017-03-18T01:15:53.566Z,999.86
2017-03-18T01:16:34.052Z,999.93
2017-03-18T01:17:14.665Z,999.92
2017-03-18T01:17:55.129Z,999.9
2017-03-18T01:18:35.651Z,999.93
2017-03-18T01:19:16.125Z,999.93
2017-03-18T01:19:56.619Z,999.99
2017-03-18T01:20:37.094Z,999.89
2017-03-18T01:21:17.598Z,999.88
2017-03-18T01:21:58.108Z,999.88
2017-03-18T01:22:38.595Z,999.83
2017-03-18T01:23:19.091Z,999.84
2017-03-18T01:23:59.603Z,999.85
2017-03-18T01:24:40.133Z,999.82
2017-03-18T01:25:20.555Z,999.73
2017-03-18T01:26:01.059Z,999.66
2017-03-18T01:26:41.540Z,999.67
2017-03-18T01:27:22.055Z,999.77
2017-03-18T01:28:02.515Z,999.69
2017-03-18T01:28:43.045Z,999.69
2017-03-18T01:29:23.546Z,999.7
2017-03-18T01:30:04.126Z,999.63
2017-03-18T01:30:44.614Z,999.62
2017-03-18T01:31:25.128Z,999.55
2017-03-18T01:32:05.631Z,999.65
2017-03-18T01:32:46.136Z,999.54
2017-03-18T01:33:26.613Z,999.54
2017-03-18T01:34:07.145Z,999.54
2017-03-18T01:34:47.599Z,999.6
2017-03-18T01:35:28.132Z,999.57
2017-03-18T01:36:08.620Z,999.5
2017-03-18T01:36:49.112Z,999.55
2017-03-18T01:37:29.612Z,999.55
2017-03-18T01:38:10.153Z,999.46
2017-03-18T01:38:50.646Z,999.47
2017-03-18T01:39:31.183Z,999.39
2017-03-18T01:40:11.686Z,999.34
2017-03-18T01:40:52.163Z,999.3
2017-03-18T01:41:32.713Z,999.34
2017-03-18T01:42:13.169Z,999.26
2017-03-18T01:42:53.635Z,999.24
2017-03-18T01:43:34.128Z,999.35
2017-03-18T01:44:14.634Z,999.3
2017-03-18T01:44:55.152Z,999.26
2017-03-18T01:45:35.626Z,999.32
2017-03-18T01:46:16.137Z,999.2
2017-03-18T01:46:56.640Z,999.23
2017-03-18T01:47:37.093Z,999.25
2017-03-18T01:48:17.613Z,999.3
2017-03-18T01:48:58.094Z,999.2
2017-03-18T01:49:38.589Z,999.16
2017-03-18T01:50:19.071Z,999.31
2017-03-18T01:50:59.544Z,999.22
2017-03-18T01:51:40.024Z,999.15
2017-03-18T01:52:20.536Z,999.14
2017-03-18T01:53:01.030Z,999.24
2017-03-18T01:53:41.512Z,999.14
2017-03-18T01:54:21.962Z,999.18
2017-03-18T01:55:02.492Z,999.14
2017-03-18T01:55:42.995Z,999.24
2017-03-18T01:56:23.476Z,999.16
2017-03-18T01:57:04.037Z,999.14
2017-03-18T01:57:44.489Z,999.15
2017-03-18T01:58:25.007Z,999.14
2017-03-18T01:59:05.511Z,999.1
2017-03-18T01:59:45.986Z,999.11
2017-03-18T02:00:26.456Z,999.1
2017-03-18T02:01:06.933Z,999.06
2017-03-18T02:01:47.420Z,999.08
2017-03-18T02:02:27.916Z,999.14
2017-03-18T02:03:08.370Z,999.1
2017-03-18T02:03:48.887Z,999.09
2017-03-18T02:04:29.420Z,999.15
2017-03-18T02:05:09.877Z,999.12
2017-03-18T02:05:50.382Z,999.12
2017-03-18T02:06:30.887Z,999.14
2017-03-18T02:07:11.339Z,999.21
2017-03-18T02:07:51.826Z,999.18
2017-03-18T02:08:32.441Z,999.18
2017-03-18T02:09:12.890Z,999.23
2017-03-18T02:09:53.438Z,999.19
2017-03-18T02:10:33.931Z,999.21
2017-03-18T02:11:14.422Z,999.29
2017-03-18T02:11:54.923Z,999.22
2017-03-18T02:12:35.393Z,999.18
2017-03-18T02:13:15.901Z,999.33
2017-03-18T02:13:56.395Z,999.27
2017-03-18T02:14:36.850Z,999.18
2017-03-18T02:15:17.381Z,999.29
2017-03-18T02:15:57.842Z,999.23
2017-03-18T02:16:38.348Z,999.28
2017-03-18T02:17:18.855Z,999.15
2017-03-18T02:17:59.314Z,999.1
2017-03-18T02:18:39.837Z,999.17
2017-03-18T02:19:20.336Z,999.17
2017-03-18T02:20:00.823Z,999.17
2017-03-18T02:20:41.294Z,999.12
2017-03-18T02:21:21.785Z,999.22
2017-03-18T02:22:02.241Z,999.12
2017-03-18T02:22:42.779Z,999.24
2017-03-18T02:23:23.232Z,999.15
2017-03-18T02:24:03.744Z,999.21
2017-03-18T02:24:44.229Z,999.12
2017-03-18T02:25:24.734Z,999.19
2017-03-18T02:26:05.217Z,999.21
2017-03-18T02:26:45.731Z,999.17
2017-03-18T02:27:26.237Z,999.16
2017-03-18T02:28:06.732Z,999.17
2017-03-18T02:28:47.221Z,999.28
2017-03-18T02:29:27.704Z,999.12
2017-03-18T02:30:08.210Z,999.07
2017-03-18T02:30:48.734Z,999.03
2017-03-18T02:31:29.264Z,999.16
2017-03-18T02:32:09.761Z,999.06
2017-03-18T02:32:50.227Z,999.06
2017-03-18T02:33:30.701Z,999.08
2017-03-18T02:34:11.179Z,999.01
2017-03-18T02:34:51.673Z,998.91
2017-03-18T02:35:32.171Z,998.98
2017-03-18T02:36:12.672Z,998.89
2017-03-18T02:36:53.258Z,998.98
2017-03-18T02:37:33.750Z,998.79
2017-03-18T02:38:14.228Z,998.93
2017-03-18T02:38:54.726Z,998.93
2017-03-18T02:39:35.173Z,998.87
2017-03-18T02:40:15.659Z,998.87
2017-03-18T02:40:56.167Z,998.85
2017-03-18T02:41:36.662Z,998.81
2017-03-18T02:42:17.155Z,998.81
2017-03-18T02:42:57.637Z,998.65
2017-03-18T02:43:38.128Z,998.73
2017-03-18T02:44:18.637Z,998.81
2017-03-18T02:44:59.126Z,998.71
2017-03-18T02:47:17.711Z,998.67
2017-03-18T02:47:58.178Z,998.74
2017-03-18T02:48:38.679Z,998.61
2017-03-18T02:49:19.156Z,998.55
2017-03-18T02:49:59.653Z,998.61
2017-03-18T02:50:40.169Z,998.63
2017-03-18T02:51:20.597Z,998.56
2017-03-18T02:52:01.107Z,998.58
2017-03-18T02:52:41.571Z,998.57
2017-03-18T02:53:22.099Z,998.56
2017-03-18T02:54:02.539Z,998.42
2017-03-18T02:54:43.031Z,998.38
2017-03-18T02:55:23.549Z,998.33
2017-03-18T02:56:04.036Z,998.34
2017-03-18T02:56:44.531Z,998.37
2017-03-18T02:57:25.022Z,998.4
2017-03-18T02:58:05.486Z,998.44
2017-03-18T02:58:46.074Z,998.33
2017-03-18T02:59:26.575Z,998.32
2017-03-18T03:00:07.061Z,998.3
2017-03-18T03:00:47.568Z,998.32
2017-03-18T03:01:28.123Z,998.37
2017-03-18T03:02:08.602Z,998.3
2017-03-18T03:02:49.066Z,998.27
2017-03-18T03:03:29.568Z,998.4
2017-03-18T03:04:10.070Z,998.26
2017-03-18T03:04:50.557Z,998.23
2017-03-18T03:05:31.046Z,998.31
2017-03-18T03:06:11.533Z,998.24
2017-03-18T03:06:52.069Z,998.31
2017-03-18T03:07:32.518Z,998.3
2017-03-18T03:08:13.036Z,998.16
2017-03-18T03:08:53.485Z,998.34
2017-03-18T03:09:34.013Z,998.21
2017-03-18T03:10:14.482Z,998.19
2017-03-18T03:10:54.982Z,998.11
2017-03-18T03:11:35.594Z,998.26
2017-03-18T03:12:16.089Z,998.21
2017-03-18T03:12:56.589Z,998.18
2017-03-18T03:13:37.050Z,998.22
2017-03-18T03:14:17.570Z,998.3
2017-03-18T03:14:58.044Z,998.15
2017-03-18T03:15:38.559Z,998.12
2017-03-18T03:16:19.061Z,998.25
2017-03-18T03:16:59.516Z,998.14
2017-03-18T03:17:40.055Z,998.14
2017-03-18T03:18:20.506Z,998.22
2017-03-18T03:19:01.056Z,998.25
2017-03-18T03:19:41.545Z,998.32
2017-03-18T03:20:22.019Z,998.15
2017-03-18T03:21:02.535Z,998.2
2017-03-18T03:21:43.013Z,998.19
2017-03-18T03:22:23.499Z,998.16
2017-03-18T03:23:03.942Z,998.3
2017-03-18T03:23:44.505Z,998.24
2017-03-18T03:24:24.966Z,998.29
2017-03-18T03:25:05.472Z,998.17
2017-03-18T03:25:45.982Z,998.2
2017-03-18T03:26:26.511Z,998.33
2017-03-18T03:27:07.042Z,998.3
2017-03-18T03:27:47.551Z,998.1
2017-03-18T03:28:28.002Z,998.23
2017-03-18T03:29:08.434Z,998.19
2017-03-18T03:29:48.939Z,998.15
2017-03-18T03:30:29.482Z,998.14
2017-03-18T03:31:09.971Z,998.11
2017-03-18T03:31:50.458Z,998.15
2017-03-18T03:32:30.935Z,998.12
2017-03-18T03:33:11.475Z,998.09
2017-03-18T03:33:51.969Z,998.02
2017-03-18T03:34:32.457Z,998.03
2017-03-18T03:35:12.892Z,997.97
2017-03-18T03:35:53.433Z,997.98
2017-03-18T03:36:33.901Z,998.05
2017-03-18T03:37:14.352Z,998.12
2017-03-18T03:37:54.953Z,998.08
2017-03-18T03:38:35.385Z,998.06
2017-03-18T03:39:15.848Z,998.02
2017-03-18T03:39:56.350Z,998.1
2017-03-18T03:40:36.847Z,998.06
2017-03-18T03:41:17.350Z,997.95
2017-03-18T03:41:57.795Z,998.07
2017-03-18T03:42:38.328Z,997.92
2017-03-18T03:43:19.094Z,997.93
2017-03-18T03:43:59.593Z,998.04
2017-03-18T03:44:40.055Z,997.96
2017-03-18T03:45:20.580Z,997.84
2017-03-18T03:46:01.070Z,997.88
2017-03-18T03:46:41.535Z,997.85
2017-03-18T03:47:22.065Z,997.93
2017-03-18T03:48:02.500Z,997.99
2017-03-18T03:48:43.059Z,997.88
2017-03-18T03:49:23.480Z,997.89
2017-03-18T03:50:04.020Z,997.97
2017-03-18T03:50:44.484Z,998.03
2017-03-18T03:51:24.945Z,998.01
2017-03-18T03:52:05.456Z,997.98
2017-03-18T03:52:45.945Z,998.1
2017-03-18T03:53:26.395Z,997.98
2017-03-18T03:54:06.967Z,997.96
2017-03-18T03:54:47.466Z,998.01
2017-03-18T03:55:27.921Z,998.01
2017-03-18T03:56:08.397Z,997.98
2017-03-18T03:56:48.928Z,997.98
2017-03-18T03:57:29.427Z,997.9
2017-03-18T03:58:09.925Z,997.94
2017-03-18T03:58:50.424Z,997.96
2017-03-18T03:59:30.918Z,997.96
2017-03-18T04:00:11.376Z,997.96
2017-03-18T04:00:51.857Z,997.93
2017-03-18T04:01:32.347Z,997.98
2017-03-18T04:02:12.840Z,997.89
2017-03-18T04:02:53.360Z,997.99
2017-03-18T04:03:33.822Z,997.86
2017-03-18T04:04:14.275Z,997.96
2017-03-18T04:04:54.811Z,997.95
2017-03-18T04:05:35.292Z,997.86
2017-03-18T04:06:15.790Z,997.88
2017-03-18T04:06:56.251Z,997.79
2017-03-18T04:07:36.784Z,997.79
2017-03-18T04:08:17.291Z,997.71
2017-03-18T04:08:57.740Z,997.74
2017-03-18T04:09:38.258Z,997.71
2017-03-18T04:10:18.734Z,997.74
2017-03-18T04:10:59.267Z,997.72
2017-03-18T04:11:39.777Z,997.68
2017-03-18T04:12:20.284Z,997.64
2017-03-18T04:13:00.753Z,997.69
2017-03-18T04:13:41.213Z,997.62
2017-03-18T04:14:21.717Z,997.65
2017-03-18T04:15:02.190Z,997.5
2017-03-18T04:15:42.636Z,997.57
2017-03-18T04:16:23.148Z,997.59
2017-03-18T04:17:03.620Z,997.45
2017-03-18T04:17:44.178Z,997.47
2017-03-18T04:18:24.688Z,997.34
2017-03-18T04:19:05.195Z,997.4
2017-03-18T04:19:45.670Z,997.5
2017-03-18T04:20:26.174Z,997.27
2017-03-18T04:21:06.644Z,997.28
2017-03-18T04:21:47.161Z,997.37
2017-03-18T04:22:27.674Z,997.35
2017-03-18T04:23:08.126Z,997.44
2017-03-18T04:23:48.598Z,997.29
2017-03-18T04:24:29.132Z,997.34
2017-03-18T04:25:09.665Z,997.33
2017-03-18T04:25:50.119Z,997.14
2017-03-18T04:26:30.681Z,997.24
2017-03-18T04:27:11.151Z,997.29
2017-03-18T04:27:51.669Z,997.14
2017-03-18T04:28:32.116Z,997.17
2017-03-18T04:29:12.608Z,997.21
2017-03-18T04:29:53.099Z,997.26
2017-03-18T04:30:33.570Z,997.28
2017-03-18T04:31:14.114Z,997.36
2017-03-18T04:31:54.571Z,997.23
2017-03-18T04:32:35.067Z,997.35
2017-03-18T04:33:15.541Z,997.29
2017-03-18T04:33:56.041Z,997.12
2017-03-18T04:34:36.513Z,997.3
2017-03-18T04:35:17.041Z,997.25
2017-03-18T04:35:57.501Z,997.3
2017-03-18T04:36:38.016Z,997.33
2017-03-18T04:37:18.462Z,997.35
2017-03-18T04:37:58.954Z,997.38
2017-03-18T04:38:39.475Z,997.31
2017-03-18T04:39:20.028Z,997.41
2017-03-18T04:40:00.553Z,997.18
2017-03-18T04:40:40.996Z,997.27
2017-03-18T04:41:21.538Z,997.22
2017-03-18T04:42:01.997Z,997.25
2017-03-18T04:42:42.487Z,997.29
2017-03-18T04:43:22.989Z,997.2
2017-03-18T04:44:03.497Z,997.3
2017-03-18T04:44:44.015Z,997.21
2017-03-18T04:45:24.539Z,997.34
2017-03-18T04:46:05.032Z,997.24
2017-03-18T04:46:45.541Z,997.31
2017-03-18T04:47:26.015Z,997.3
2017-03-18T04:48:06.505Z,997.38
2017-03-18T04:48:47.024Z,997.35
2017-03-18T04:49:27.528Z,997.41
2017-03-18T04:50:07.980Z,997.3
2017-03-18T04:50:48.520Z,997.27
2017-03-18T04:51:29.054Z,997.44
2017-03-18T04:52:09.511Z,997.4
2017-03-18T04:52:50.013Z,997.4
2017-03-18T04:53:30.511Z,997.31
2017-03-18T04:54:11.089Z,997.37
2017-03-18T04:54:51.516Z,997.37
2017-03-18T04:55:32.003Z,997.3
2017-03-18T04:56:12.501Z,997.35
2017-03-18T04:56:53.039Z,997.4
2017-03-18T04:57:33.454Z,997.39
2017-03-18T04:58:13.971Z,997.52
2017-03-18T04:58:54.456Z,997.54
2017-03-18T04:59:34.929Z,997.46
2017-03-18T05:00:15.395Z,997.49
2017-03-18T05:00:55.916Z,997.55
2017-03-18T05:01:36.397Z,997.49
2017-03-18T05:02:16.891Z,997.43
2017-03-18T05:02:57.421Z,997.47
2017-03-18T05:03:37.949Z,997.45
2017-03-18T05:04:18.394Z,997.48
2017-03-18T05:04:58.890Z,997.43
2017-03-18T05:05:39.383Z,997.5
2017-03-18T05:06:19.915Z,997.49
2017-03-18T05:07:00.387Z,997.47
2017-03-18T05:07:40.882Z,997.57
2017-03-18T05:08:21.363Z,997.45
2017-03-18T05:09:01.841Z,997.46
2017-03-18T05:09:42.350Z,997.57
2017-03-18T05:10:23.809Z,997.42
2017-03-18T05:11:04.384Z,997.4
2017-03-18T05:11:44.902Z,997.43
2017-03-18T05:12:25.393Z,997.5
2017-03-18T05:13:05.917Z,997.57
2017-03-18T05:13:46.407Z,997.62
2017-03-18T05:14:26.872Z,997.57
2017-03-18T05:15:07.392Z,997.44
2017-03-18T05:15:47.893Z,997.56
2017-03-18T05:16:28.400Z,997.69
2017-03-18T05:17:08.845Z,997.65
2017-03-18T05:17:49.372Z,997.71
2017-03-18T05:18:29.817Z,997.7
2017-03-18T05:19:10.330Z,997.8
2017-03-18T05:19:50.816Z,997.7
2017-03-18T05:20:31.315Z,997.67
2017-03-18T05:21:11.808Z,997.73
2017-03-18T05:21:52.264Z,997.65
2017-03-18T05:22:32.746Z,997.77
2017-03-18T05:23:13.220Z,997.84
2017-03-18T05:23:53.695Z,997.77
2017-03-18T05:24:34.133Z,997.77
2017-03-18T05:25:14.660Z,997.84
2017-03-18T05:25:55.143Z,997.82
2017-03-18T05:26:35.602Z,997.83
2017-03-18T05:27:16.115Z,997.81
2017-03-18T05:27:56.628Z,997.86
2017-03-18T05:28:37.133Z,997.84
2017-03-18T05:29:17.629Z,997.88
2017-03-18T05:29:58.126Z,997.88
2017-03-18T05:30:38.635Z,997.83
2017-03-18T05:31:19.178Z,997.76
2017-03-18T05:31:59.664Z,997.78
2017-03-18T05:32:40.122Z,997.75
2017-03-18T05:33:20.612Z,997.67
2017-03-18T05:34:01.108Z,997.81
2017-03-18T05:34:41.638Z,997.75
2017-03-18T05:35:22.097Z,997.79
2017-03-18T05:36:02.588Z,997.69
2017-03-18T05:36:43.095Z,997.87
2017-03-18T05:37:23.647Z,997.77
2017-03-18T05:38:04.050Z,997.8
2017-03-18T05:38:44.531Z,997.76
2017-03-18T05:39:25.026Z,997.73
2017-03-18T05:40:05.557Z,997.69
2017-03-18T05:40:46.011Z,997.78
2017-03-18T05:41:26.478Z,997.79
2017-03-18T05:42:06.960Z,997.81
2017-03-18T05:42:47.482Z,997.7
2017-03-18T05:43:27.961Z,997.67
2017-03-18T05:44:08.494Z,997.75
2017-03-18T05:44:49.009Z,997.77
2017-03-18T05:45:29.481Z,997.64
2017-03-18T05:46:10.006Z,997.68
2017-03-18T05:46:50.515Z,997.67
2017-03-18T05:47:31.020Z,997.68
2017-03-18T05:48:11.495Z,997.65
2017-03-18T05:48:52.077Z,997.51
2017-03-18T05:49:32.592Z,997.47
2017-03-18T05:50:13.087Z,997.5
2017-03-18T05:50:53.551Z,997.55
2017-03-18T05:51:34.050Z,997.53
2017-03-18T05:52:14.570Z,997.62
2017-03-18T05:52:55.087Z,997.58
2017-03-18T05:53:35.598Z,997.55
2017-03-18T05:54:16.049Z,997.5
2017-03-18T05:54:56.543Z,997.56
2017-03-18T05:55:37.065Z,997.69
2017-03-18T05:56:17.488Z,997.54
2017-03-18T05:56:57.967Z,997.58
2017-03-18T05:57:38.487Z,997.49
2017-03-18T05:58:18.982Z,997.62
2017-03-18T05:58:59.498Z,997.61
2017-03-18T05:59:40.004Z,997.56
2017-03-18T06:00:20.757Z,997.61
2017-03-18T06:01:02.015Z,997.61
2017-03-18T06:01:45.499Z,997.58
2017-03-18T06:02:26.200Z,997.57
2017-03-18T06:03:06.641Z,997.54
2017-03-18T06:03:54.570Z,997.47
2017-03-18T06:04:36.250Z,997.52
2017-03-18T06:05:19.471Z,997.6
2017-03-18T06:06:07.248Z,997.54
2017-03-18T06:06:47.768Z,997.52
2017-03-18T06:07:28.855Z,997.58
2017-03-18T06:08:09.628Z,997.53
2017-03-18T06:08:50.091Z,997.56
2017-03-18T06:09:30.586Z,997.51
2017-03-18T06:10:11.119Z,997.64
2017-03-18T06:10:51.690Z,997.65
2017-03-18T06:11:32.223Z,997.58
2017-03-18T06:12:12.723Z,997.66
2017-03-18T06:12:53.252Z,997.75
2017-03-18T06:13:34.178Z,997.71
2017-03-18T06:14:14.728Z,997.71
2017-03-18T06:14:55.241Z,997.76
2017-03-18T06:15:35.763Z,997.67
2017-03-18T06:16:16.212Z,997.8
2017-03-18T06:16:56.777Z,997.72
2017-03-18T06:17:37.268Z,997.8
2017-03-18T06:18:17.767Z,997.79
2017-03-18T06:18:58.284Z,997.74
2017-03-18T06:19:38.760Z,997.71
2017-03-18T06:20:19.236Z,997.72
2017-03-18T06:20:59.738Z,997.74
2017-03-18T06:21:40.223Z,997.84
2017-03-18T06:22:20.695Z,997.86
2017-03-18T06:23:01.182Z,997.81
2017-03-18T06:23:41.765Z,997.79
2017-03-18T06:24:22.247Z,997.77
2017-03-18T06:25:02.783Z,997.7
2017-03-18T06:25:43.285Z,997.71
2017-03-18T06:26:23.768Z,997.63
2017-03-18T06:27:04.252Z,997.64
2017-03-18T06:27:44.707Z,997.68
2017-03-18T06:28:25.215Z,997.79
2017-03-18T06:29:05.698Z,997.79
2017-03-18T06:29:46.159Z,997.69
2017-03-18T06:30:26.641Z,997.73
2017-03-18T06:31:07.215Z,997.75
2017-03-18T06:31:47.719Z,997.66
2017-03-18T06:32:28.145Z,997.75
2017-03-18T06:33:08.850Z,997.72
2017-03-18T06:33:49.355Z,997.76
2017-03-18T06:34:29.803Z,997.74
2017-03-18T06:35:10.353Z,997.8
2017-03-18T06:35:50.830Z,997.78
2017-03-18T06:36:31.300Z,997.84
2017-03-18T06:37:11.842Z,997.53
2017-03-18T06:37:52.337Z,997.77
2017-03-18T06:38:32.857Z,997.76
2017-03-18T06:39:13.310Z,997.81
2017-03-18T06:39:53.809Z,997.73
2017-03-18T06:40:34.297Z,997.87
2017-03-18T06:41:14.782Z,997.83
2017-03-18T06:41:55.303Z,997.91
2017-03-18T06:42:35.755Z,997.88
2017-03-18T06:43:16.204Z,997.73
2017-03-18T06:43:56.732Z,997.89
2017-03-18T06:44:37.243Z,997.76
2017-03-18T06:45:17.704Z,997.68
2017-03-18T06:45:58.222Z,997.77
2017-03-18T06:46:38.732Z,997.78
2017-03-18T06:47:19.200Z,997.88
2017-03-18T06:47:59.694Z,997.88
2017-03-18T06:48:40.240Z,997.79
2017-03-18T06:49:20.665Z,997.89
2017-03-18T06:50:01.151Z,997.81
2017-03-18T06:50:41.745Z,997.78
2017-03-18T06:51:22.196Z,997.86
2017-03-18T06:52:02.705Z,997.89
2017-03-18T06:52:43.241Z,997.91
2017-03-18T06:53:23.731Z,997.95
2017-03-18T06:54:04.196Z,997.84
2017-03-18T06:54:44.644Z,997.92
2017-03-18T06:55:25.153Z,997.91
2017-03-18T06:56:05.633Z,997.9
2017-03-18T06:56:46.121Z,997.89
2017-03-18T06:57:26.636Z,997.96
2017-03-18T06:58:07.174Z,997.95
2017-03-18T06:58:47.671Z,997.91
2017-03-18T06:59:28.125Z,997.95
2017-03-18T07:00:08.636Z,998.02
2017-03-18T07:00:49.177Z,997.97
2017-03-18T07:01:29.652Z,998.05
2017-03-18T07:02:10.139Z,998.05
2017-03-18T07:02:50.652Z,998.03
2017-03-18T07:03:31.200Z,997.98
2017-03-18T07:04:11.618Z,998.1
2017-03-18T07:04:52.097Z,998.11
2017-03-18T07:05:32.591Z,998.04
2017-03-18T07:06:13.099Z,998.05
2017-03-18T07:06:53.623Z,998.11
2017-03-18T07:07:34.107Z,998.16
2017-03-18T07:08:14.633Z,998.17
2017-03-18T07:08:55.135Z,998.16
2017-03-18T07:09:35.582Z,998.15
2017-03-18T07:10:16.157Z,998.25
2017-03-18T07:10:56.615Z,998.1
2017-03-18T07:11:37.111Z,998.17
2017-03-18T07:12:17.668Z,998.16
2017-03-18T07:12:58.205Z,998.1
2017-03-18T07:13:38.827Z,998.19
2017-03-18T07:14:19.318Z,998.3
2017-03-18T07:14:59.827Z,998.3
2017-03-18T07:15:40.386Z,998.22
2017-03-18T07:16:20.887Z,998.3
2017-03-18T07:17:01.428Z,998.2
2017-03-18T07:17:41.897Z,998.24
2017-03-18T07:18:22.425Z,998.19
2017-03-18T07:19:02.972Z,998.34
2017-03-18T07:19:43.477Z,998.32
2017-03-18T07:20:24.002Z,998.33
2017-03-18T07:21:04.424Z,998.4
2017-03-18T07:21:44.910Z,998.35
2017-03-18T07:22:25.507Z,998.33
2017-03-18T07:23:06.064Z,998.3
2017-03-18T07:23:46.574Z,998.34
2017-03-18T07:24:27.212Z,998.3
2017-03-18T07:25:07.712Z,998.43
2017-03-18T07:25:48.201Z,998.32
2017-03-18T07:26:28.765Z,998.36
2017-03-18T07:27:09.230Z,998.3
2017-03-18T07:27:49.722Z,998.37
2017-03-18T07:28:30.237Z,998.31
2017-03-18T07:29:10.720Z,998.33
2017-03-18T07:29:51.233Z,998.36
2017-03-18T07:30:31.721Z,998.4
2017-03-18T07:31:12.204Z,998.4
2017-03-18T07:31:52.720Z,998.5
2017-03-18T07:32:33.204Z,998.48
2017-03-18T07:33:13.798Z,998.59
2017-03-18T07:33:54.213Z,998.5
2017-03-18T07:34:34.754Z,998.57
2017-03-18T07:35:15.382Z,998.49
2017-03-18T07:35:55.841Z,998.55
2017-03-18T07:36:36.386Z,998.5
2017-03-18T07:37:16.878Z,998.57
2017-03-18T07:37:57.368Z,998.57
2017-03-18T07:38:37.845Z,998.53
2017-03-18T07:39:18.313Z,998.53
2017-03-18T07:39:58.847Z,998.56
2017-03-18T07:40:39.254Z,998.47
2017-03-18T07:41:19.754Z,998.56
2017-03-18T07:42:00.274Z,998.56
2017-03-18T07:42:40.736Z,998.55
2017-03-18T07:43:21.344Z,998.53
2017-03-18T07:44:01.715Z,998.52
2017-03-18T07:44:42.254Z,998.53
2017-03-18T07:45:22.743Z,998.53
2017-03-18T07:46:03.224Z,998.47
2017-03-18T07:46:43.718Z,998.45
2017-03-18T07:47:24.192Z,998.45
2017-03-18T07:48:04.769Z,998.48
2017-03-18T07:48:45.211Z,998.59
2017-03-18T07:49:25.872Z,998.56
2017-03-18T07:50:06.324Z,998.47
2017-03-18T07:50:46.825Z,998.57
2017-03-18T07:51:27.314Z,998.6
2017-03-18T07:52:07.835Z,998.6
2017-03-18T07:52:48.287Z,998.62
2017-03-18T07:53:28.880Z,998.68
2017-03-18T07:54:09.372Z,998.64
2017-03-18T07:54:49.864Z,998.7
2017-03-18T07:55:30.339Z,998.6
2017-03-18T07:56:10.797Z,998.56
2017-03-18T07:56:51.330Z,998.6
2017-03-18T07:57:31.811Z,998.54
2017-03-18T07:58:12.275Z,998.57
2017-03-18T07:58:52.819Z,998.58
2017-03-18T07:59:33.345Z,998.63
2017-03-18T08:00:13.852Z,998.6
2017-03-18T08:00:55.365Z,998.61
2017-03-18T08:01:36.294Z,998.63
2017-03-18T08:02:16.726Z,998.71
2017-03-18T08:02:57.324Z,998.81
2017-03-18T08:03:39.060Z,998.67
2017-03-18T08:04:19.338Z,998.69
2017-03-18T08:04:59.863Z,998.73
2017-03-18T08:05:40.383Z,998.55
2017-03-18T08:06:20.902Z,998.71
2017-03-18T08:07:01.398Z,998.65
2017-03-18T08:07:41.887Z,998.72
2017-03-18T08:08:22.418Z,998.64
2017-03-18T08:09:02.873Z,998.74
2017-03-18T08:09:43.400Z,998.74
2017-03-18T08:10:23.947Z,998.77
2017-03-18T08:11:04.412Z,998.76
2017-03-18T08:11:44.928Z,998.78
2017-03-18T08:12:25.676Z,998.77
2017-03-18T08:13:06.025Z,998.78
2017-03-18T08:13:46.984Z,998.79
2017-03-18T08:14:27.204Z,998.79
2017-03-18T08:15:07.718Z,998.82
2017-03-18T08:15:48.208Z,998.84
2017-03-18T08:16:28.737Z,998.85
2017-03-18T08:17:09.256Z,998.8
2017-03-18T08:17:49.712Z,998.8
2017-03-18T08:18:30.207Z,998.81
2017-03-18T08:19:10.749Z,998.76
2017-03-18T08:19:51.211Z,998.79
2017-03-18T08:20:31.718Z,998.88
2017-03-18T08:21:12.338Z,998.83
2017-03-18T08:21:52.866Z,998.8
2017-03-18T08:22:33.821Z,998.82
2017-03-18T08:23:14.208Z,998.77
2017-03-18T08:23:54.752Z,998.83
2017-03-18T08:24:35.208Z,998.85
2017-03-18T08:25:15.742Z,998.85
2017-03-18T08:25:56.338Z,998.88
2017-03-18T08:26:36.824Z,998.89
2017-03-18T08:27:17.317Z,998.87
2017-03-18T08:27:57.826Z,998.98
2017-03-18T08:28:38.309Z,998.95